Time;durP1;ratioP1;P1;durP2;ratioP2;P2;SDS_P1;SDS_P2;PMS_P1;PMS_P2;Temp;Humidity;BMP_temperature;BMP_pressure;BME280_temperature;BME280_humidity;BME280_pressure;Samples;Min_cycle;Max_cycle;Signal;HPM_P1;HPM_P2
2021/09/14 00:02:12;;;;;;;10.55;3.40;;;;;;;;;;21167167;28;20072;-65
2021/09/14 00:12:14;;;;;;;9.55;3.30;;;;;;;;;;21168192;28;20059;-56
2021/09/14 00:22:16;;;;;;;7.93;3.25;;;;;;;;;;21166708;28;20377;-51
2021/09/14 00:32:18;;;;;;;9.83;3.77;;;;;;;;;;21165489;28;20055;-65
2021/09/14 00:42:20;;;;;;;9.38;3.92;;;;;;;;;;21164622;28;20047;-64
2021/09/14 00:52:22;;;;;;;13.65;4.13;;;;;;;;;;21164876;28;20048;-66
2021/09/14 01:02:24;;;;;;;7.97;3.63;;;;;;;;;;21163298;28;20083;-49
2021/09/14 01:12:26;;;;;;;10.07;3.50;;;;;;;;;;21162937;28;20050;-49
2021/09/14 01:22:28;;;;;;;11.70;3.70;;;;;;;;;;21162161;28;20142;-52
2021/09/14 01:32:31;;;;;;;;;;;;;;;;;;21164038;28;20098;-49
2021/09/14 01:42:34;;;;;;;9.13;4.07;;;;;;;;;;21144904;28;19927;-49
2021/09/14 01:52:37;;;;;;;9.40;3.28;;;;;;;;;;21143505;28;20453;-52
2021/09/14 02:44:36;;;;;;;13.30;4.55;;;;;;;;;;21176189;28;20051;-48
2021/09/14 03:04:47;;;;;;;12.93;3.88;;;;;;;;;;21172185;28;20059;-50
2021/09/14 03:14:50;;;;;;;12.57;4.00;;;;;;;;;;21171825;28;20051;-51
2021/09/14 03:24:54;;;;;;;11.93;4.03;;;;;;;;;;21171004;28;20130;-48
2021/09/14 03:35:00;;;;;;;8.20;3.47;;;;;;;;;;21170026;28;20048;-48
2021/09/14 03:45:02;;;;;;;11.20;3.47;;;;;;;;;;21170046;28;20059;-49
2021/09/14 03:55:09;;;;;;;10.50;3.63;;;;;;;;;;21168974;28;20124;-50
2021/09/14 04:15:33;;;;;;;10.98;3.72;;;;;;;;;;21167751;28;20120;-48
2021/09/14 04:25:35;;;;;;;10.27;4.57;;;;;;;;;;21148324;28;20283;-46
2021/09/14 04:35:37;;;;;;;13.63;3.85;;;;;;;;;;21165251;28;20044;-47
2021/09/14 04:45:38;;;;;;;12.10;4.55;;;;;;;;;;21165556;28;20052;-47
2021/09/14 04:55:40;;;;;;;15.20;3.88;;;;;;;;;;21145945;28;20435;-48
2021/09/14 05:05:43;;;;;;;12.88;3.60;;;;;;;;;;21163573;28;20465;-48
2021/09/14 05:15:47;;;;;;;11.02;3.75;;;;;;;;;;21162936;28;20079;-48
2021/09/14 05:25:48;;;;;;;11.20;3.78;;;;;;;;;;21163047;28;20054;-48
2021/09/14 05:35:52;;;;;;;11.45;3.25;;;;;;;;;;21163356;28;20480;-49
2021/09/14 05:45:54;;;;;;;18.35;4.88;;;;;;;;;;21144332;28;20077;-50
2021/09/14 05:55:57;;;;;;;11.80;3.78;;;;;;;;;;21162136;28;20044;-49
2021/09/14 06:06:00;;;;;;;16.87;4.07;;;;;;;;;;21172339;28;20510;-48
2021/09/14 06:16:05;;;;;;;12.53;3.63;;;;;;;;;;21177671;28;20131;-51
2021/09/14 06:26:06;;;;;;;14.38;4.55;;;;;;;;;;21158258;28;20055;-47
2021/09/14 06:36:08;;;;;;;12.38;3.72;;;;;;;;;;21175886;28;20496;-47
2021/09/14 06:46:10;;;;;;;14.13;3.55;;;;;;;;;;21176076;28;20055;-46
2021/09/14 06:56:12;;;;;;;16.10;4.70;;;;;;;;;;21174650;28;20066;-62
2021/09/14 07:06:15;;;;;;;14.20;4.03;;;;;;;;;;21155041;28;20112;-53
2021/09/14 07:16:18;;;;;;;12.33;3.43;;;;;;;;;;21152994;28;20502;-56
2021/09/14 07:26:20;;;;;;;16.80;4.00;;;;;;;;;;21170848;28;20304;-62
2021/09/14 07:36:25;;;;;;;15.90;3.78;;;;;;;;;;21167827;28;20047;-57
2021/09/14 07:46:28;;;;;;;14.18;3.75;;;;;;;;;;21149182;28;20514;-57
2021/09/14 07:56:30;;;;;;;12.77;2.92;;;;;;;;;;21166724;28;20058;-62
2021/09/14 08:06:32;;;;;;;11.73;4.25;;;;;;;;;;21165272;28;20128;-57
2021/09/14 08:16:36;;;;;;;8.45;3.17;;;;;;;;;;21164742;28;20139;-54
2021/09/14 08:26:39;;;;;;;7.87;3.93;;;;;;;;;;21163346;28;20051;-61
2021/09/14 08:36:42;;;;;;;5.68;2.55;;;;;;;;;;21163106;28;20060;-53
2021/09/14 08:46:45;;;;;;;7.93;2.67;;;;;;;;;;21153744;28;20458;-47
2021/09/14 08:56:47;;;;;;;9.07;3.10;;;;;;;;;;21158497;28;20074;-58
2021/09/14 09:06:50;;;;;;;8.80;2.92;;;;;;;;;;21161183;28;20052;-51
2021/09/14 09:17:03;;;;;;;13.68;3.35;;;;;;;;;;21144358;28;20096;-48
2021/09/14 09:27:10;;;;;;;7.70;2.53;;;;;;;;;;21132902;28;20048;-52
2021/09/14 09:37:22;;;;;;;8.10;3.53;;;;;;;;;;21149303;28;20047;-56
2021/09/14 09:47:25;;;;;;;9.85;2.88;;;;;;;;;;21152545;28;20059;-48
2021/09/14 09:57:29;;;;;;;10.98;3.72;;;;;;;;;;21101397;28;20135;-55
2021/09/14 10:07:32;;;;;;;10.37;3.60;;;;;;;;;;21139727;28;20113;-48
2021/09/14 10:17:48;;;;;;;7.80;3.90;;;;;;;;;;21175867;28;20039;-59
2021/09/14 10:27:50;;;;;;;11.18;3.63;;;;;;;;;;21137337;27;20048;-60
2021/09/14 10:38:03;;;;;;;14.23;3.97;;;;;;;;;;21124000;27;20403;-53
2021/09/14 10:48:18;;;;;;;12.00;3.72;;;;;;;;;;21100511;27;20489;-54
2021/09/14 10:58:20;;;;;;;;;;;;;;;;;;21163878;28;20138;-49
2021/09/14 11:08:25;;;;;;;9.48;3.35;;;;;;;;;;21122466;28;20280;-56
2021/09/14 11:18:29;;;;;;;11.32;3.63;;;;;;;;;;21132134;27;20039;-49
2021/09/14 11:28:32;;;;;;;7.22;3.08;;;;;;;;;;21139867;28;20377;-49
2021/09/14 11:38:35;;;;;;;;;;;;;;;;;;21169778;28;20135;-63
2021/09/14 11:48:41;;;;;;;13.88;3.95;;;;;;;;;;21169290;28;19919;-57
2021/09/14 11:58:48;;;;;;;13.93;4.40;;;;;;;;;;21165695;27;20474;-52
2021/09/14 12:08:50;;;;;;;13.13;4.25;;;;;;;;;;21126055;28;20079;-56
2021/09/14 12:18:52;;;;;;;27.23;7.07;;;;;;;;;;21090682;28;20048;-52
2021/09/14 12:28:56;;;;;;;11.77;4.10;;;;;;;;;;21080907;28;20048;-67
2021/09/14 12:39:01;;;;;;;16.02;4.53;;;;;;;;;;21079192;28;20101;-64
2021/09/14 12:49:04;;;;;;;13.70;4.15;;;;;;;;;;21079199;28;20059;-58
2021/09/14 12:59:08;;;;;;;11.48;3.75;;;;;;;;;;21079082;28;20052;-53
2021/09/14 13:09:11;;;;;;;;;;;;;;;;;;21079756;28;20048;-53
2021/09/14 13:19:14;;;;;;;20.23;5.23;;;;;;;;;;21078254;28;19920;-55
2021/09/14 13:29:16;;;;;;;14.83;4.53;;;;;;;;;;21077180;28;20048;-53
2021/09/14 13:39:19;;;;;;;11.43;5.07;;;;;;;;;;21059478;28;20503;-56
2021/09/14 13:49:23;;;;;;;10.57;4.72;;;;;;;;;;21077515;28;20062;-68
2021/09/14 13:59:25;;;;;;;10.20;3.77;;;;;;;;;;21076783;28;20451;-54
2021/09/14 14:09:27;;;;;;;13.07;4.10;;;;;;;;;;21076817;28;20425;-53
2021/09/14 14:19:30;;;;;;;10.00;3.40;;;;;;;;;;21076891;28;20040;-53
2021/09/14 14:29:33;;;;;;;7.53;3.38;;;;;;;;;;21088220;28;20056;-53
2021/09/14 14:39:36;;;;;;;;;;;;;;;;;;21090319;28;20071;-55
2021/09/14 14:49:38;;;;;;;9.55;3.10;;;;;;;;;;21090343;28;20263;-56
2021/09/14 14:59:41;;;;;;;;;;;;;;;;;;21088387;28;20465;-54
2021/09/14 15:09:43;;;;;;;9.45;2.72;;;;;;;;;;21088631;28;20039;-58
2021/09/14 15:19:46;;;;;;;7.60;3.22;;;;;;;;;;21088014;28;20094;-56
2021/09/14 15:29:49;;;;;;;7.80;2.20;;;;;;;;;;21086187;28;20123;-68
2021/09/14 15:39:51;;;;;;;7.43;3.23;;;;;;;;;;21085211;28;20101;-68
2021/09/14 15:49:54;;;;;;;11.90;3.40;;;;;;;;;;21085746;28;20044;-68
2021/09/14 15:59:56;;;;;;;7.07;2.50;;;;;;;;;;21086565;28;20142;-51
2021/09/14 16:09:59;;;;;;;8.02;3.20;;;;;;;;;;21159417;28;20428;-64
2021/09/14 16:20:02;;;;;;;9.17;3.97;;;;;;;;;;21165799;28;20048;-55
2021/09/14 16:30:05;;;;;;;8.60;3.13;;;;;;;;;;21145543;28;20116;-62
2021/09/14 16:40:09;;;;;;;9.30;3.60;;;;;;;;;;21165369;28;20127;-67
2021/09/14 16:50:13;;;;;;;10.57;3.40;;;;;;;;;;21164322;28;20499;-54
2021/09/14 17:00:15;;;;;;;;;;;;;;;;;;21164107;28;20130;-59
2021/09/14 17:10:19;;;;;;;12.87;3.10;;;;;;;;;;21145533;28;19931;-55
2021/09/14 17:20:22;;;;;;;9.88;3.30;;;;;;;;;;21162496;28;20096;-54
2021/09/14 17:30:23;;;;;;;6.60;2.90;;;;;;;;;;21163631;28;20051;-59
2021/09/14 17:40:26;;;;;;;8.27;3.50;;;;;;;;;;21161741;28;20126;-59
2021/09/14 17:50:28;;;;;;;17.80;7.97;;;;;;;;;;21143582;28;20058;-58
2021/09/14 18:00:30;;;;;;;13.60;4.55;;;;;;;;;;21169374;28;20051;-64
2021/09/14 18:10:32;;;;;;;11.38;4.97;;;;;;;;;;21162509;28;20507;-59
2021/09/14 18:20:34;;;;;;;9.35;3.88;;;;;;;;;;21092214;28;20048;-59
2021/09/14 18:30:36;;;;;;;8.32;3.83;;;;;;;;;;21091627;28;20051;-64
2021/09/14 18:40:38;;;;;;;12.05;5.13;;;;;;;;;;21091568;28;20052;-63
2021/09/14 18:50:40;;;;;;;12.63;5.07;;;;;;;;;;21089399;28;20048;-54
2021/09/14 19:00:42;;;;;;;8.97;1.67;;;;;;;;;;21088249;28;20140;-65
2021/09/14 19:10:44;;;;;;;4.35;1.40;;;;;;;;;;21086217;28;20052;-54
2021/09/14 19:20:47;;;;;;;4.22;1.30;;;;;;;;;;21086886;28;20407;-55
2021/09/14 19:30:49;;;;;;;4.10;1.40;;;;;;;;;;21085821;28;20055;-55
2021/09/14 19:40:50;;;;;;;7.40;1.50;;;;;;;;;;21084954;28;20071;-67
2021/09/14 19:50:53;;;;;;;3.80;2.08;;;;;;;;;;21084658;28;20052;-64
2021/09/14 20:00:54;;;;;;;4.78;1.88;;;;;;;;;;21084071;28;20060;-54
2021/09/14 20:10:56;;;;;;;3.88;1.90;;;;;;;;;;21083303;28;20403;-65
2021/09/14 20:20:58;;;;;;;4.72;2.08;;;;;;;;;;21083481;28;20488;-60
2021/09/14 20:31:00;;;;;;;5.32;2.53;;;;;;;;;;21083004;28;20048;-62
2021/09/14 20:41:01;;;;;;;6.97;3.50;;;;;;;;;;21080627;28;20048;-64
2021/09/14 20:51:04;;;;;;;4.28;1.95;;;;;;;;;;21081443;28;20055;-61
2021/09/14 21:01:05;;;;;;;7.10;3.08;;;;;;;;;;21079851;28;20102;-61
2021/09/14 21:11:07;;;;;;;6.97;3.20;;;;;;;;;;21080371;28;20127;-64
2021/09/14 21:21:09;;;;;;;7.07;3.50;;;;;;;;;;21079929;28;20044;-54
2021/09/14 21:31:11;;;;;;;5.68;3.67;;;;;;;;;;21081868;28;20048;-64
2021/09/14 21:41:13;;;;;;;7.47;3.78;;;;;;;;;;21097491;28;20131;-63
2021/09/14 21:51:15;;;;;;;5.55;3.47;;;;;;;;;;21095697;28;20044;-63
2021/09/14 22:01:17;;;;;;;6.78;3.63;;;;;;;;;;21094841;28;20052;-62
2021/09/14 22:11:19;;;;;;;6.38;3.42;;;;;;;;;;21093792;28;20510;-63
2021/09/14 22:21:21;;;;;;;6.55;3.38;;;;;;;;;;21093745;28;20075;-52
2021/09/14 22:31:23;;;;;;;5.37;2.93;;;;;;;;;;21091421;28;20482;-59
2021/09/14 22:41:25;;;;;;;4.43;2.72;;;;;;;;;;21090035;28;20044;-53
2021/09/14 22:51:27;;;;;;;5.45;3.30;;;;;;;;;;21088995;28;20048;-59
2021/09/14 23:01:28;;;;;;;4.32;3.10;;;;;;;;;;21088843;28;20048;-53
2021/09/14 23:11:30;;;;;;;5.22;3.22;;;;;;;;;;21087899;28;20044;-59
2021/09/14 23:21:32;;;;;;;4.75;3.03;;;;;;;;;;21087628;28;20144;-55
2021/09/14 23:31:33;;;;;;;6.57;3.90;;;;;;;;;;21087435;28;20052;-55
2021/09/14 23:41:35;;;;;;;7.93;4.32;;;;;;;;;;21067902;28;20044;-61
2021/09/14 23:51:37;;;;;;;7.65;4.60;;;;;;;;;;21086091;28;20411;-55
